Time;durP1;ratioP1;P1;durP2;ratioP2;P2;SDS_P1;SDS_P2;PMS_P1;PMS_P2;Temp;Humidity;BMP_temperature;BMP_pressure;BME280_temperature;BME280_humidity;BME280_pressure;Samples;Min_cycle;Max_cycle;Signal;HPM_P1;HPM_P2
2021/11/21 00:01:19;;;;;;;21.60;14.18;;;9.20;99.90;;;;;;5014151;28;20152;-53
2021/11/21 00:03:45;;;;;;;23.20;15.50;;;9.20;99.90;;;;;;5006774;28;20049;-54
2021/11/21 00:06:12;;;;;;;21.60;14.18;;;9.20;99.90;;;;;;5041594;28;20472;-51
2021/11/21 00:08:39;;;;;;;23.10;15.05;;;9.20;99.90;;;;;;5032205;28;20045;-55
2021/11/21 00:11:06;;;;;;;21.48;16.23;;;9.20;99.90;;;;;;5015278;28;20055;-53
2021/11/21 00:13:32;;;;;;;22.65;15.50;;;9.20;99.90;;;;;;5030598;28;20523;-54
2021/11/21 00:16:00;;;;;;;24.15;17.48;;;9.20;99.90;;;;;;5031419;28;20547;-50
2021/11/21 00:18:26;;;;;;;25.02;17.90;;;9.20;99.90;;;;;;5031214;28;20041;-57
2021/11/21 00:20:53;;;;;;;26.77;17.23;;;9.20;99.90;;;;;;5031346;28;20049;-51
2021/11/21 00:23:21;;;;;;;29.73;16.90;;;9.20;99.90;;;;;;5029652;28;20106;-56
2021/11/21 00:25:47;;;;;;;25.80;17.30;;;9.20;99.90;;;;;;5001920;28;20045;-51
2021/11/21 00:28:13;;;;;;;28.08;18.55;;;9.20;99.90;;;;;;5032249;28;20044;-53
2021/11/21 00:30:40;;;;;;;24.83;18.83;;;9.20;99.90;;;;;;4982816;28;20079;-48
2021/11/21 00:33:06;;;;;;;29.73;18.85;;;9.20;99.90;;;;;;5030398;28;20053;-51
2021/11/21 00:35:33;;;;;;;29.75;18.48;;;9.20;99.90;;;;;;5030603;28;20044;-51
2021/11/21 00:37:59;;;;;;;26.27;19.58;;;9.20;99.90;;;;;;5031666;28;20515;-53
2021/11/21 00:40:26;;;;;;;28.00;20.42;;;9.20;99.90;;;;;;5014570;28;20048;-53
2021/11/21 00:42:53;;;;;;;27.83;20.40;;;9.20;99.90;;;;;;5031648;28;20049;-57
2021/11/21 00:45:19;;;;;;;26.85;20.15;;;9.20;99.90;;;;;;5013589;28;20105;-58
2021/11/21 00:47:46;;;;;;;28.92;20.63;;;9.20;99.90;;;;;;5015082;28;20049;-56
2021/11/21 00:50:14;;;;;;;25.40;18.48;;;9.20;99.90;;;;;;5023278;28;20496;-57
2021/11/21 00:52:41;;;;;;;29.90;19.92;;;9.20;99.90;;;;;;5031934;28;20044;-56
2021/11/21 00:55:16;;;;;;;29.92;19.42;;;9.20;99.90;;;;;;5019794;28;20041;-55
2021/11/21 00:57:44;;;;;;;30.92;20.60;;;9.10;99.90;;;;;;5031726;28;20057;-57
2021/11/21 01:00:13;;;;;;;30.58;20.85;;;9.20;99.90;;;;;;4998868;28;20056;-57
2021/11/21 01:02:41;;;;;;;30.23;19.75;;;9.20;99.90;;;;;;5030531;28;20053;-57
2021/11/21 01:05:08;;;;;;;32.00;20.50;;;9.20;99.90;;;;;;5014547;28;20041;-58
2021/11/21 01:07:37;;;;;;;35.40;21.30;;;9.20;99.90;;;;;;5046363;28;20109;-57
2021/11/21 01:10:09;;;;;;;28.90;22.23;;;9.10;99.90;;;;;;4984158;28;20046;-57
2021/11/21 01:12:40;;;;;;;28.08;20.45;;;9.10;99.90;;;;;;5012498;28;20060;-58
2021/11/21 01:15:08;;;;;;;36.13;21.60;;;9.10;99.90;;;;;;5047199;28;20084;-57
2021/11/21 01:17:35;;;;;;;32.40;20.83;;;9.10;99.90;;;;;;5046667;28;20041;-51
2021/11/21 01:20:02;;;;;;;34.00;21.10;;;9.10;99.90;;;;;;5030579;28;20041;-57
2021/11/21 01:22:31;;;;;;;34.65;22.08;;;9.10;99.90;;;;;;5047586;28;20041;-56
2021/11/21 01:24:58;;;;;;;32.88;22.80;;;9.10;99.90;;;;;;5047089;28;20060;-50
2021/11/21 01:27:24;;;;;;;31.30;21.73;;;9.10;99.90;;;;;;5013438;28;20048;-54
2021/11/21 01:29:51;;;;;;;31.45;21.67;;;9.10;99.90;;;;;;5048642;28;20555;-56
2021/11/21 01:32:17;;;;;;;30.33;21.10;;;9.10;99.90;;;;;;5018361;28;20066;-49
2021/11/21 01:34:44;;;;;;;32.58;22.08;;;9.10;99.90;;;;;;5044805;28;20045;-56
2021/11/21 01:37:10;;;;;;;36.85;23.30;;;9.10;99.90;;;;;;5039747;28;20052;-57
2021/11/21 01:39:37;;;;;;;32.80;21.88;;;9.10;99.90;;;;;;5047561;28;20075;-57
2021/11/21 01:42:03;;;;;;;35.05;22.70;;;9.10;99.90;;;;;;5049224;28;20118;-55
2021/11/21 01:44:30;;;;;;;35.58;23.92;;;9.00;99.90;;;;;;5034439;28;20049;-54
2021/11/21 01:46:56;;;;;;;36.42;24.83;;;9.10;99.90;;;;;;5033927;28;20044;-49
2021/11/21 01:49:23;;;;;;;40.42;24.60;;;9.10;99.90;;;;;;5018036;28;20170;-52
2021/11/21 01:51:50;;;;;;;37.85;23.92;;;9.10;99.90;;;;;;5052229;28;20150;-54
2021/11/21 01:54:17;;;;;;;30.48;21.35;;;9.10;99.90;;;;;;5052005;28;20572;-52
2021/11/21 01:56:45;;;;;;;35.30;23.42;;;9.00;99.90;;;;;;5018734;28;20559;-54
2021/11/21 01:59:11;;;;;;;33.45;22.15;;;9.10;99.90;;;;;;5032761;28;20052;-53
2021/11/21 02:01:38;;;;;;;37.53;21.98;;;9.10;99.90;;;;;;5017938;28;20045;-53
2021/11/21 02:04:04;;;;;;;30.67;22.05;;;9.10;99.90;;;;;;5034428;28;20116;-49
2021/11/21 02:06:31;;;;;;;31.95;23.40;;;9.10;99.90;;;;;;5051216;28;20052;-51
2021/11/21 02:08:57;;;;;;;36.97;23.38;;;9.10;99.90;;;;;;5017110;28;20539;-58
2021/11/21 02:11:27;;;;;;;33.55;21.00;;;9.10;99.90;;;;;;5000837;28;20048;-49
2021/11/21 02:13:53;;;;;;;34.38;21.05;;;9.10;99.90;;;;;;5051187;28;20099;-53
2021/11/21 02:16:24;;;;;;;33.50;20.92;;;9.10;99.90;;;;;;5047636;28;20049;-50
2021/11/21 02:18:50;;;;;;;39.78;23.30;;;9.10;99.90;;;;;;5030631;28;20171;-53
2021/11/21 02:21:18;;;;;;;32.78;20.27;;;9.10;99.90;;;;;;5012058;28;20044;-57
2021/11/21 02:23:46;;;;;;;33.67;20.88;;;9.10;99.90;;;;;;4998943;28;20053;-57
2021/11/21 02:26:15;;;;;;;34.47;21.15;;;9.10;99.90;;;;;;5051790;28;20033;-58
2021/11/21 02:28:41;;;;;;;37.60;22.27;;;9.10;99.90;;;;;;5014316;28;20056;-57
2021/11/21 02:31:08;;;;;;;41.72;23.42;;;9.20;99.90;;;;;;4993014;28;20045;-57
2021/11/21 02:33:34;;;;;;;38.10;21.98;;;9.20;99.90;;;;;;5052523;28;20483;-56
2021/11/21 02:36:03;;;;;;;34.90;21.15;;;9.20;99.90;;;;;;5052121;28;20556;-57
2021/11/21 02:38:30;;;;;;;33.90;20.27;;;9.20;99.90;;;;;;5027407;28;20524;-56
2021/11/21 02:40:58;;;;;;;32.35;19.92;;;9.20;99.90;;;;;;4999439;28;20374;-57
2021/11/21 02:43:25;;;;;;;33.25;20.45;;;9.10;99.90;;;;;;5051935;28;20102;-57
2021/11/21 02:45:53;;;;;;;35.28;20.02;;;9.20;99.90;;;;;;5034238;28;20049;-57
2021/11/21 02:48:22;;;;;;;31.40;18.08;;;9.20;99.90;;;;;;5034332;28;20053;-58
2021/11/21 02:50:49;;;;;;;28.73;16.65;;;9.20;99.90;;;;;;5017627;28;20049;-57
2021/11/21 02:53:17;;;;;;;30.27;18.42;;;9.20;99.90;;;;;;5016600;28;20076;-58
2021/11/21 02:55:44;;;;;;;26.90;16.65;;;9.20;99.90;;;;;;5034399;28;20076;-50
2021/11/21 02:58:10;;;;;;;24.73;14.68;;;9.20;99.90;;;;;;5033794;28;20507;-51
2021/11/21 03:00:39;;;;;;;26.27;14.73;;;9.20;99.90;;;;;;5034391;28;20395;-51
2021/11/21 03:03:05;;;;;;;26.58;14.70;;;9.20;99.90;;;;;;5034080;28;20546;-54
2021/11/21 03:05:34;;;;;;;23.17;13.60;;;9.20;99.90;;;;;;5051920;28;20075;-52
2021/11/21 03:08:00;;;;;;;18.52;11.50;;;9.10;99.90;;;;;;5033747;28;20049;-52
2021/11/21 03:10:28;;;;;;;22.58;12.43;;;9.10;99.90;;;;;;5017424;28;20051;-54
2021/11/21 03:12:56;;;;;;;21.65;12.07;;;9.20;99.90;;;;;;5051742;28;20592;-54
2021/11/21 03:15:23;;;;;;;20.50;11.65;;;9.20;99.90;;;;;;5031222;28;20059;-54
2021/11/21 03:17:53;;;;;;;21.17;11.65;;;9.20;99.90;;;;;;5033616;28;20053;-57
2021/11/21 03:20:25;;;;;;;18.88;12.30;;;9.20;99.90;;;;;;4984222;28;20053;-57
2021/11/21 03:22:51;;;;;;;21.65;12.32;;;9.20;99.90;;;;;;5051693;28;20124;-54
2021/11/21 03:25:17;;;;;;;21.40;12.68;;;9.20;99.90;;;;;;5033232;28;20547;-53
2021/11/21 03:27:43;;;;;;;18.52;11.48;;;9.20;99.90;;;;;;5000688;28;20124;-57
2021/11/21 03:30:13;;;;;;;19.63;11.13;;;9.20;99.90;;;;;;5017081;28;20083;-57
2021/11/21 03:32:39;;;;;;;17.70;11.00;;;9.20;99.90;;;;;;5033166;28;20106;-57
2021/11/21 03:35:07;;;;;;;16.05;9.45;;;9.20;99.90;;;;;;5047058;28;20053;-58
2021/11/21 03:37:34;;;;;;;15.65;9.43;;;9.10;99.90;;;;;;5018730;28;20052;-57
2021/11/21 03:40:00;;;;;;;14.30;9.10;;;9.20;99.90;;;;;;4997720;28;20045;-57
2021/11/21 03:42:26;;;;;;;13.32;9.07;;;9.20;99.90;;;;;;5013086;28;20046;-58
2021/11/21 03:44:52;;;;;;;18.27;9.45;;;9.20;99.90;;;;;;5013235;28;20045;-57
2021/11/21 03:47:19;;;;;;;12.75;8.95;;;9.20;99.90;;;;;;5012870;28;20084;-52
2021/11/21 03:49:45;;;;;;;14.32;8.57;;;9.10;99.90;;;;;;5020382;28;20507;-54
2021/11/21 03:52:11;;;;;;;15.75;9.30;;;9.10;99.90;;;;;;5016790;28;20092;-52
2021/11/21 03:54:37;;;;;;;12.55;8.68;;;9.20;99.90;;;;;;5050660;28;20087;-52
2021/11/21 03:57:04;;;;;;;12.23;8.65;;;9.20;99.90;;;;;;5032726;28;20040;-54
2021/11/21 03:59:30;;;;;;;16.58;9.32;;;9.10;99.90;;;;;;5016409;28;20152;-57
2021/11/21 04:01:58;;;;;;;13.75;9.35;;;9.10;99.90;;;;;;5032982;28;20049;-58
2021/11/21 04:04:30;;;;;;;14.63;9.30;;;9.10;99.90;;;;;;5032848;28;20235;-58
2021/11/21 04:06:56;;;;;;;16.05;9.00;;;9.10;99.90;;;;;;5049693;28;20053;-52
2021/11/21 04:09:23;;;;;;;18.83;9.70;;;9.10;99.90;;;;;;5050678;28;20107;-52
2021/11/21 04:11:50;;;;;;;15.50;8.73;;;9.10;99.90;;;;;;5016460;28;20126;-50
2021/11/21 04:14:17;;;;;;;12.90;8.15;;;9.10;99.90;;;;;;5015041;28;20115;-51
2021/11/21 04:16:44;;;;;;;14.60;8.00;;;9.10;99.90;;;;;;5015260;28;20049;-54
2021/11/21 04:19:10;;;;;;;14.50;8.68;;;9.10;99.90;;;;;;5032505;28;20052;-58
2021/11/21 04:21:37;;;;;;;15.93;8.02;;;9.10;99.90;;;;;;5050030;28;20052;-58
2021/11/21 04:24:05;;;;;;;14.60;7.50;;;9.10;99.90;;;;;;5016074;28;20091;-58
2021/11/21 04:26:32;;;;;;;12.15;7.18;;;9.10;99.90;;;;;;5050319;28;20096;-58
2021/11/21 04:28:58;;;;;;;12.13;7.25;;;9.10;99.90;;;;;;5050028;28;20106;-58
2021/11/21 04:31:24;;;;;;;13.70;6.82;;;9.10;99.90;;;;;;5016048;28;20380;-58
2021/11/21 04:33:51;;;;;;;15.15;6.82;;;9.10;99.90;;;;;;5050288;28;20421;-58
2021/11/21 04:36:17;;;;;;;14.45;7.22;;;9.10;99.90;;;;;;5050388;28;20045;-58
2021/11/21 04:38:44;;;;;;;13.50;6.75;;;9.10;99.90;;;;;;5048912;28;20064;-53
2021/11/21 04:41:11;;;;;;;15.30;6.35;;;9.00;99.90;;;;;;5042958;28;20074;-52
2021/11/21 04:43:37;;;;;;;10.48;6.30;;;9.00;99.90;;;;;;5044838;28;20082;-50
2021/11/21 04:46:04;;;;;;;13.32;6.28;;;9.00;99.90;;;;;;5049624;28;20108;-51
2021/11/21 04:48:31;;;;;;;14.35;6.90;;;9.00;99.90;;;;;;5031850;28;20049;-51
2021/11/21 04:50:59;;;;;;;12.82;6.88;;;9.00;99.90;;;;;;5031996;28;20106;-54
2021/11/21 04:53:26;;;;;;;12.68;6.50;;;9.00;99.90;;;;;;5032015;28;20048;-58
2021/11/21 04:55:52;;;;;;;13.75;5.97;;;9.00;99.90;;;;;;5049702;28;20048;-58
2021/11/21 04:58:19;;;;;;;13.52;6.13;;;9.00;99.90;;;;;;5049542;28;20136;-54
2021/11/21 05:00:45;;;;;;;12.73;5.97;;;8.90;99.90;;;;;;5049775;28;20586;-51
2021/11/21 05:03:11;;;;;;;10.82;6.00;;;9.00;99.90;;;;;;5032063;28;20057;-52
2021/11/21 05:05:37;;;;;;;13.10;5.40;;;9.00;99.90;;;;;;4999268;28;20399;-51
2021/11/21 05:08:04;;;;;;;16.15;5.30;;;9.00;99.90;;;;;;5049552;28;20047;-52
2021/11/21 05:10:30;;;;;;;13.80;5.22;;;9.00;99.90;;;;;;5049700;28;20048;-58
2021/11/21 05:12:57;;;;;;;12.57;4.20;;;9.00;99.90;;;;;;5015092;28;20411;-50
2021/11/21 05:15:25;;;;;;;9.15;4.00;;;8.90;99.90;;;;;;5027424;28;20044;-57
2021/11/21 05:17:52;;;;;;;11.13;4.25;;;8.90;99.90;;;;;;5015004;28;20106;-57
2021/11/21 05:20:19;;;;;;;13.52;3.35;;;8.90;99.90;;;;;;5049763;28;20045;-53
2021/11/21 05:22:46;;;;;;;12.05;3.75;;;8.90;99.90;;;;;;5049556;28;20057;-51
2021/11/21 05:25:14;;;;;;;13.25;4.97;;;9.00;99.90;;;;;;5031500;28;20484;-58
2021/11/21 05:27:46;;;;;;;12.13;3.50;;;8.90;99.90;;;;;;5045139;28;20073;-57
2021/11/21 05:30:13;;;;;;;12.75;2.72;;;8.90;99.90;;;;;;5031198;28;20102;-56
2021/11/21 05:32:41;;;;;;;9.48;2.58;;;8.90;99.90;;;;;;5045230;28;20041;-56
2021/11/21 05:35:08;;;;;;;15.27;2.90;;;8.90;99.90;;;;;;5031490;28;20496;-56
2021/11/21 05:37:36;;;;;;;13.32;2.40;;;8.80;99.90;;;;;;5048833;28;20571;-57
2021/11/21 05:40:08;;;;;;;12.95;2.47;;;8.80;99.90;;;;;;5049513;28;20045;-57
2021/11/21 05:42:34;;;;;;;14.00;2.38;;;8.80;99.90;;;;;;5017047;28;20049;-58
2021/11/21 05:45:00;;;;;;;14.57;2.25;;;8.80;99.90;;;;;;5029523;28;20049;-56
2021/11/21 05:47:27;;;;;;;12.73;2.10;;;8.80;99.90;;;;;;5039466;28;20041;-57
2021/11/21 05:49:53;;;;;;;12.93;2.05;;;8.80;99.90;;;;;;5026199;28;20057;-58
2021/11/21 05:52:19;;;;;;;16.83;2.50;;;8.70;99.90;;;;;;5013127;28;20053;-58
2021/11/21 05:54:45;;;;;;;15.20;2.20;;;8.70;99.90;;;;;;5047552;28;20180;-58
2021/11/21 05:57:14;;;;;;;8.50;2.35;;;8.70;99.90;;;;;;5025511;28;20049;-58
2021/11/21 05:59:40;;;;;;;9.88;2.20;;;8.70;99.90;;;;;;5009704;28;20078;-57
2021/11/21 06:02:07;;;;;;;10.80;1.95;;;8.60;99.90;;;;;;5006757;28;20409;-58
2021/11/21 06:04:33;;;;;;;11.13;1.88;;;8.70;99.90;;;;;;5008125;28;20034;-57
2021/11/21 06:06:59;;;;;;;6.45;1.63;;;8.60;99.90;;;;;;5032557;28;20523;-56
2021/11/21 06:09:25;;;;;;;12.77;2.13;;;8.60;99.90;;;;;;5007283;28;20409;-56
2021/11/21 06:11:54;;;;;;;11.70;2.83;;;8.60;99.90;;;;;;4974856;28;20054;-57
2021/11/21 06:14:21;;;;;;;11.85;1.98;;;8.60;99.90;;;;;;5006541;28;20053;-55
2021/11/21 06:16:48;;;;;;;9.98;2.13;;;8.60;99.90;;;;;;5028248;28;20049;-55
2021/11/21 06:19:14;;;;;;;14.52;2.35;;;8.50;99.90;;;;;;5010697;28;20045;-52
2021/11/21 06:21:40;;;;;;;14.95;2.15;;;8.50;99.90;;;;;;5009288;28;20050;-55
2021/11/21 06:24:07;;;;;;;12.38;2.05;;;8.50;99.90;;;;;;5032207;28;20052;-56
2021/11/21 06:26:34;;;;;;;13.30;1.98;;;8.50;99.90;;;;;;5008079;28;20038;-56
2021/11/21 06:29:00;;;;;;;10.30;1.80;;;8.40;99.90;;;;;;5009145;28;20041;-56
2021/11/21 06:31:26;;;;;;;12.38;2.10;;;8.40;99.90;;;;;;4994697;28;20165;-55
2021/11/21 06:33:55;;;;;;;13.63;2.25;;;8.40;99.90;;;;;;5031742;28;20052;-55
2021/11/21 06:36:22;;;;;;;14.57;2.53;;;8.30;99.90;;;;;;5010073;28;20038;-56
2021/11/21 06:38:48;;;;;;;12.70;2.45;;;8.30;99.90;;;;;;5010250;28;20050;-56
2021/11/21 06:41:14;;;;;;;14.52;2.10;;;8.20;99.90;;;;;;5026855;28;20037;-57
2021/11/21 06:43:40;;;;;;;14.75;2.10;;;8.20;99.90;;;;;;5013648;28;20491;-57
2021/11/21 06:46:06;;;;;;;12.38;2.72;;;8.10;99.90;;;;;;5013883;28;20045;-57
2021/11/21 06:48:34;;;;;;;13.52;1.90;;;8.10;99.90;;;;;;5044650;28;20563;-57
2021/11/21 06:51:00;;;;;;;12.40;2.60;;;8.10;99.90;;;;;;5033996;28;20045;-57
2021/11/21 06:53:26;;;;;;;10.68;2.33;;;8.00;99.90;;;;;;5010090;28;20070;-57
2021/11/21 06:55:53;;;;;;;13.50;2.40;;;8.00;99.90;;;;;;4973294;28;20496;-57
2021/11/21 06:58:19;;;;;;;11.68;1.92;;;7.90;99.90;;;;;;5052061;28;20408;-57
2021/11/21 07:00:45;;;;;;;21.88;2.78;;;7.90;99.90;;;;;;5033923;28;20060;-57
2021/11/21 07:03:11;;;;;;;16.40;2.35;;;7.90;99.90;;;;;;5017987;28;20071;-56
2021/11/21 07:05:37;;;;;;;17.65;2.97;;;7.80;99.90;;;;;;5045134;28;20065;-56
2021/11/21 07:08:04;;;;;;;13.18;2.70;;;7.80;99.90;;;;;;5037838;28;20404;-57
2021/11/21 07:10:30;;;;;;;11.30;1.60;;;7.80;99.90;;;;;;5009526;28;20053;-57
2021/11/21 07:12:58;;;;;;;13.90;2.22;;;7.70;99.90;;;;;;5017556;28;20051;-56
2021/11/21 07:15:24;;;;;;;17.23;2.22;;;7.70;99.90;;;;;;5051110;28;20345;-57
2021/11/21 07:17:54;;;;;;;19.33;3.17;;;7.60;99.90;;;;;;5044631;28;20127;-57
2021/11/21 07:20:20;;;;;;;12.10;1.98;;;7.60;99.90;;;;;;5033937;28;20047;-57
2021/11/21 07:22:51;;;;;;;12.57;2.05;;;7.50;99.90;;;;;;5050814;28;20501;-62
2021/11/21 07:25:19;;;;;;;14.68;2.63;;;7.50;99.90;;;;;;5033109;28;20045;-57
2021/11/21 07:27:46;;;;;;;13.25;2.60;;;7.40;99.90;;;;;;5033555;28;20044;-58
2021/11/21 07:30:14;;;;;;;18.10;2.78;;;7.40;99.90;;;;;;5033301;28;20043;-58
2021/11/21 07:32:41;;;;;;;15.73;2.63;;;7.40;99.90;;;;;;5051102;28;20543;-56
2021/11/21 07:35:08;;;;;;;17.65;2.17;;;7.30;99.90;;;;;;5050754;28;20055;-55
2021/11/21 07:37:34;;;;;;;14.88;2.60;;;7.30;99.90;;;;;;5033175;28;20044;-56
2021/11/21 07:40:01;;;;;;;12.75;2.58;;;7.30;99.90;;;;;;5032230;28;20090;-57
2021/11/21 07:42:27;;;;;;;13.65;2.20;;;7.20;99.90;;;;;;5033602;28;20053;-57
2021/11/21 07:44:53;;;;;;;21.52;2.70;;;7.20;99.90;;;;;;5033085;28;20037;-56
2021/11/21 07:47:21;;;;;;;12.80;2.35;;;7.20;99.90;;;;;;5032772;28;20080;-56
2021/11/21 07:49:47;;;;;;;17.40;2.65;;;7.10;99.90;;;;;;5016523;28;20064;-54
2021/11/21 07:52:13;;;;;;;20.80;2.58;;;7.10;99.90;;;;;;5032998;28;20052;-56
2021/11/21 07:54:43;;;;;;;16.75;2.38;;;7.10;99.90;;;;;;5051061;28;20087;-56
2021/11/21 07:57:10;;;;;;;13.13;1.80;;;7.10;99.90;;;;;;5050438;28;20040;-58
2021/11/21 07:59:36;;;;;;;12.77;2.35;;;7.00;99.90;;;;;;5033150;28;20083;-58
2021/11/21 08:02:02;;;;;;;11.27;2.70;;;7.00;99.90;;;;;;5015686;28;20049;-56
2021/11/21 08:04:28;;;;;;;18.52;2.45;;;6.90;99.90;;;;;;5050433;28;20083;-56
2021/11/21 08:06:55;;;;;;;13.77;2.75;;;6.90;99.90;;;;;;5032435;28;20153;-56
2021/11/21 08:09:21;;;;;;;11.77;2.03;;;6.90;99.90;;;;;;5050913;28;20068;-56
2021/11/21 08:11:47;;;;;;;14.85;2.70;;;6.90;99.90;;;;;;5046801;28;20373;-55
2021/11/21 08:14:13;;;;;;;17.15;2.33;;;7.00;99.90;;;;;;5032786;28;20568;-56
2021/11/21 08:16:41;;;;;;;15.05;2.20;;;7.10;99.90;;;;;;5032156;28;20115;-55
2021/11/21 08:19:10;;;;;;;15.15;2.58;;;7.10;99.90;;;;;;5050572;28;20572;-56
2021/11/21 08:21:36;;;;;;;15.98;2.30;;;7.30;99.90;;;;;;5032577;28;20045;-48
2021/11/21 08:24:02;;;;;;;10.27;1.50;;;7.60;99.90;;;;;;5032439;28;20044;-56
2021/11/21 08:26:30;;;;;;;17.38;2.42;;;7.90;99.90;;;;;;5028893;28;20041;-57
2021/11/21 08:28:56;;;;;;;10.13;1.80;;;8.10;99.90;;;;;;5036799;28;20052;-56
2021/11/21 08:31:22;;;;;;;11.38;2.28;;;8.10;99.90;;;;;;5050561;28;20052;-53
2021/11/21 08:33:48;;;;;;;11.20;2.30;;;8.00;99.90;;;;;;5050237;28;20045;-55
2021/11/21 08:36:14;;;;;;;13.27;2.42;;;8.00;99.90;;;;;;5050431;28;20052;-57
2021/11/21 08:38:41;;;;;;;12.90;2.35;;;8.00;99.90;;;;;;5036094;28;20144;-58
2021/11/21 08:41:07;;;;;;;14.75;2.53;;;7.90;99.90;;;;;;4995969;28;20423;-58
2021/11/21 08:43:33;;;;;;;10.32;1.92;;;8.00;99.90;;;;;;5012228;28;20053;-57
2021/11/21 08:45:59;;;;;;;15.55;2.70;;;8.10;99.90;;;;;;5012509;28;20491;-58
2021/11/21 08:48:25;;;;;;;17.70;2.83;;;8.00;99.90;;;;;;5018328;28;20048;-57
2021/11/21 08:50:53;;;;;;;14.93;2.20;;;8.00;99.90;;;;;;5037696;28;20091;-58
2021/11/21 08:53:20;;;;;;;11.80;2.10;;;8.00;99.90;;;;;;5049882;28;20130;-58
2021/11/21 08:55:46;;;;;;;11.05;2.40;;;8.00;99.90;;;;;;5031901;28;20057;-57
2021/11/21 08:58:12;;;;;;;14.32;2.38;;;8.00;99.90;;;;;;5031958;28;20048;-58
2021/11/21 09:00:38;;;;;;;13.48;2.15;;;8.00;99.90;;;;;;5031632;28;20049;-57
2021/11/21 09:03:04;;;;;;;12.50;2.00;;;7.90;99.90;;;;;;5015140;28;20052;-57
2021/11/21 09:05:31;;;;;;;16.35;2.95;;;8.00;99.90;;;;;;5049499;28;20055;-57
2021/11/21 09:07:57;;;;;;;12.57;1.95;;;8.10;99.90;;;;;;5015580;28;20377;-57
2021/11/21 09:10:23;;;;;;;15.05;2.58;;;8.20;99.90;;;;;;5031879;28;20621;-58
2021/11/21 09:12:49;;;;;;;12.68;3.20;;;8.20;99.90;;;;;;5015385;28;20056;-58
2021/11/21 09:15:19;;;;;;;14.95;2.75;;;8.50;99.90;;;;;;5031482;28;20053;-57
2021/11/21 09:17:46;;;;;;;18.30;2.20;;;8.90;99.90;;;;;;5049434;28;20131;-57
2021/11/21 09:20:13;;;;;;;11.90;2.03;;;9.50;99.90;;;;;;5049275;28;20063;-57
2021/11/21 09:22:40;;;;;;;11.90;2.03;;;10.20;99.90;;;;;;5049369;28;20072;-58
2021/11/21 09:25:07;;;;;;;10.30;2.13;;;10.60;99.90;;;;;;5015193;28;20381;-58
2021/11/21 09:27:35;;;;;;;10.52;1.75;;;10.90;99.90;;;;;;5031328;28;20523;-57
2021/11/21 09:30:03;;;;;;;7.38;1.70;;;11.30;99.90;;;;;;5031065;28;20049;-57
2021/11/21 09:32:29;;;;;;;14.63;2.53;;;12.00;99.90;;;;;;5049049;28;20139;-58
2021/11/21 09:34:55;;;;;;;9.77;2.15;;;12.30;99.90;;;;;;5014629;28;20076;-58
2021/11/21 09:37:21;;;;;;;7.10;2.00;;;13.20;99.90;;;;;;5049328;28;20060;-58
2021/11/21 09:39:48;;;;;;;11.45;2.05;;;13.70;99.90;;;;;;5048710;28;20496;-56
2021/11/21 09:42:15;;;;;;;9.63;2.72;;;14.00;99.90;;;;;;5014338;28;20076;-57
2021/11/21 09:44:41;;;;;;;9.98;2.40;;;14.60;99.90;;;;;;5049451;28;20064;-57
2021/11/21 09:47:07;;;;;;;9.98;2.00;;;14.60;99.90;;;;;;5014418;28;20049;-57
2021/11/21 09:49:34;;;;;;;10.65;2.45;;;14.50;99.90;;;;;;5048126;28;20539;-57
2021/11/21 09:52:00;;;;;;;9.38;2.00;;;14.70;99.90;;;;;;5048375;28;20103;-57
2021/11/21 09:54:29;;;;;;;10.75;2.08;;;14.70;99.90;;;;;;5049258;28;20041;-57
2021/11/21 09:56:56;;;;;;;10.32;2.33;;;14.50;99.90;;;;;;5049318;28;20376;-57
2021/11/21 09:59:47;;;;;;;10.27;1.77;;;14.00;99.90;;;;;;5031737;28;20399;-57
2021/11/21 10:02:19;;;;;;;11.30;2.10;;;13.70;99.90;;;;;;5014914;28;20466;-57
2021/11/21 10:04:45;;;;;;;10.10;1.70;;;13.20;99.90;;;;;;5052917;28;20094;-58
2021/11/21 10:07:30;;;;;;;8.18;1.83;;;13.50;99.90;;;;;;5053756;28;20049;-57
2021/11/21 10:09:58;;;;;;;9.90;1.77;;;13.70;99.90;;;;;;5052664;28;20041;-57
2021/11/21 10:12:32;;;;;;;11.05;2.03;;;14.20;99.90;;;;;;5035182;28;20562;-57
2021/11/21 10:15:04;;;;;;;10.05;2.35;;;14.70;99.90;;;;;;5034507;28;20110;-57
2021/11/21 10:17:32;;;;;;;7.13;2.05;;;14.80;99.90;;;;;;5052504;28;20151;-57
2021/11/21 10:20:21;;;;;;;10.20;1.70;;;15.00;99.90;;;;;;5017820;28;20049;-57
2021/11/21 10:22:52;;;;;;;6.60;1.50;;;15.00;99.90;;;;;;5044330;28;20045;-57
2021/11/21 10:25:42;;;;;;;6.38;2.00;;;15.00;99.90;;;;;;5052330;28;20124;-57
2021/11/21 10:28:14;;;;;;;10.68;1.60;;;14.60;99.90;;;;;;5052122;28;20056;-57
2021/11/21 10:31:02;;;;;;;13.57;2.40;;;14.80;99.90;;;;;;5017648;28;20150;-57
2021/11/21 10:33:37;;;;;;;12.30;1.85;;;14.60;99.90;;;;;;5033029;28;20344;-58
2021/11/21 10:36:07;;;;;;;10.52;2.10;;;14.80;99.90;;;;;;5034258;28;20053;-57
2021/11/21 10:38:37;;;;;;;10.27;1.90;;;14.90;99.90;;;;;;5052350;28;20054;-57
2021/11/21 10:41:09;;;;;;;12.85;2.35;;;14.80;99.90;;;;;;5034074;28;20128;-57
2021/11/21 10:44:05;;;;;;;8.85;1.98;;;14.90;99.90;;;;;;5037411;28;20052;-57
2021/11/21 10:46:34;;;;;;;10.68;1.70;;;15.30;99.90;;;;;;5040047;28;20060;-58
2021/11/21 10:49:13;;;;;;;9.48;2.10;;;16.00;99.90;;;;;;5017422;28;20055;-57
2021/11/21 10:51:40;;;;;;;8.75;1.90;;;15.90;99.30;;;;;;5017542;28;20407;-58
2021/11/21 10:54:24;;;;;;;7.97;1.80;;;15.90;99.90;;;;;;5034150;28;20052;-57
2021/11/21 10:56:55;;;;;;;8.35;2.00;;;16.00;92.20;;;;;;5052392;28;20045;-57
2021/11/21 10:59:51;;;;;;;13.18;3.05;;;15.80;99.40;;;;;;5017913;28;20049;-57
2021/11/21 11:02:27;;;;;;;8.55;1.90;;;16.00;91.90;;;;;;5051124;28;20044;-58
2021/11/21 11:05:07;;;;;;;10.18;2.38;;;16.20;98.40;;;;;;5034216;28;20458;-57
2021/11/21 11:07:37;;;;;;;10.00;2.25;;;15.30;99.90;;;;;;5051864;28;20102;-58
2021/11/21 11:10:09;;;;;;;11.98;1.90;;;14.80;99.90;;;;;;5033414;28;20071;-56
2021/11/21 11:12:36;;;;;;;6.40;1.70;;;15.00;99.90;;;;;;5016440;28;20084;-57
2021/11/21 11:15:03;;;;;;;8.38;2.42;;;14.30;99.90;;;;;;5050295;28;20052;-57
2021/11/21 11:17:31;;;;;;;8.93;1.90;;;14.60;99.90;;;;;;5051166;28;20053;-57
2021/11/21 11:19:59;;;;;;;8.23;2.17;;;14.70;99.90;;;;;;5017467;28;20048;-58
2021/11/21 11:22:27;;;;;;;6.25;2.58;;;14.90;99.90;;;;;;5033210;28;20206;-57
2021/11/21 11:24:55;;;;;;;8.82;2.65;;;15.20;99.90;;;;;;5033101;28;20057;-59
2021/11/21 11:27:49;;;;;;;7.07;1.95;;;15.20;99.90;;;;;;5017521;28;20467;-56
2021/11/21 11:30:18;;;;;;;5.60;1.95;;;14.40;99.90;;;;;;5051435;28;20080;-56
2021/11/21 11:32:45;;;;;;;6.97;1.75;;;13.70;99.90;;;;;;5033345;28;20120;-56
2021/11/21 11:35:32;;;;;;;10.23;2.25;;;13.30;99.90;;;;;;5033255;28;20049;-57
2021/11/21 11:38:10;;;;;;;12.80;2.45;;;12.80;99.90;;;;;;5051201;28;20523;-57
2021/11/21 11:40:44;;;;;;;14.90;4.05;;;13.10;99.90;;;;;;5033061;28;20438;-57
2021/11/21 11:43:20;;;;;;;11.38;4.85;;;13.80;99.90;;;;;;5032022;28;20061;-57
2021/11/21 11:45:50;;;;;;;10.95;3.88;;;13.90;99.90;;;;;;5032891;28;20049;-57
2021/11/21 11:48:32;;;;;;;8.05;1.58;;;13.80;99.90;;;;;;5019909;28;20045;-58
2021/11/21 11:51:01;;;;;;;6.55;1.50;;;14.10;99.90;;;;;;5032414;28;20068;-57
2021/11/21 11:53:38;;;;;;;9.93;2.10;;;14.30;99.90;;;;;;5032679;28;20052;-57
2021/11/21 11:56:21;;;;;;;9.27;2.85;;;14.00;99.90;;;;;;5033355;28;20052;-57
2021/11/21 11:58:51;;;;;;;8.52;3.10;;;13.50;99.90;;;;;;5050778;28;20075;-56
2021/11/21 12:01:38;;;;;;;9.05;1.90;;;13.00;99.90;;;;;;5050566;28;20052;-57
2021/11/21 12:04:30;;;;;;;7.80;2.00;;;12.60;99.90;;;;;;5049979;28;20496;-56
2021/11/21 12:06:58;;;;;;;8.65;2.67;;;12.50;99.90;;;;;;4989973;28;20045;-56
2021/11/21 12:09:35;;;;;;;10.98;1.88;;;12.70;99.90;;;;;;5047751;28;20124;-56
2021/11/21 12:12:01;;;;;;;7.38;2.10;;;12.90;99.90;;;;;;5015059;28;20080;-55
2021/11/21 12:14:30;;;;;;;9.23;2.88;;;12.80;99.90;;;;;;5050268;28;20411;-57
2021/11/21 12:17:11;;;;;;;7.85;2.20;;;12.30;99.90;;;;;;5032669;28;20056;-57
2021/11/21 12:19:52;;;;;;;8.38;2.25;;;12.00;99.90;;;;;;5049818;28;20088;-54
2021/11/21 12:22:24;;;;;;;6.90;2.08;;;11.70;99.90;;;;;;5016052;28;20060;-56
2021/11/21 12:24:51;;;;;;;6.55;1.63;;;11.50;99.90;;;;;;5050501;28;20083;-57
2021/11/21 12:27:27;;;;;;;10.05;2.00;;;11.60;99.90;;;;;;5016291;28;20051;-57
2021/11/21 12:30:06;;;;;;;7.13;1.90;;;12.60;99.90;;;;;;5015674;28;20122;-57
2021/11/21 12:32:32;;;;;;;8.43;2.08;;;12.80;99.90;;;;;;5015600;28;20102;-56
2021/11/21 12:35:02;;;;;;;9.65;2.92;;;12.50;99.90;;;;;;5032194;28;20140;-57
2021/11/21 12:37:43;;;;;;;8.45;1.73;;;12.30;99.90;;;;;;5032143;28;20472;-57
2021/11/21 12:40:25;;;;;;;3.70;1.30;;;11.80;99.90;;;;;;5049998;28;20044;-57
2021/11/21 12:42:54;;;;;;;;;;;11.50;99.90;;;;;;5050386;28;20063;-57
2021/11/21 12:45:23;;;;;;;4.72;0.88;;;11.10;99.90;;;;;;4999836;28;20303;-56
2021/11/21 12:47:52;;;;;;;6.70;1.50;;;11.00;99.90;;;;;;5050125;28;20080;-56
2021/11/21 12:50:50;;;;;;;6.35;1.77;;;10.80;99.90;;;;;;5015081;28;20040;-56